Time;durP1;ratioP1;P1;durP2;ratioP2;P2;SDS_P1;SDS_P2;PMS_P1;PMS_P2;Temp;Humidity;BMP_temperature;BMP_pressure;BME280_temperature;BME280_humidity;BME280_pressure;Samples;Min_cycle;Max_cycle;Signal;HPM_P1;HPM_P2
2023/07/04 00:02:04;;;;;;;6.57;4.20;;;;;;;19.07;91.58;94578.66;5093409;28;20673;-74
2023/07/04 00:04:32;;;;;;;4.82;3.92;;;;;;;19.05;91.59;94585.69;5099326;28;20247;-73
2023/07/04 00:07:04;;;;;;;5.85;3.80;;;;;;;18.95;91.85;94589.94;5098401;28;20194;-73
2023/07/04 00:09:31;;;;;;;10.02;3.50;;;;;;;18.90;92.20;94587.53;5096505;28;20335;-73
2023/07/04 00:11:58;;;;;;;6.72;3.60;;;;;;;18.88;92.60;94587.13;5088163;28;20203;-73
2023/07/04 00:14:25;;;;;;;4.88;3.85;;;;;;;18.84;92.70;94585.53;5096943;28;20237;-73
2023/07/04 00:16:51;;;;;;;4.95;3.70;;;;;;;18.80;93.06;94586.31;5099920;28;20206;-73
2023/07/04 00:19:20;;;;;;;4.22;3.30;;;;;;;18.72;93.56;94589.38;5091572;28;20205;-73
2023/07/04 00:21:46;;;;;;;4.80;3.65;;;;;;;18.75;93.40;94583.91;5093844;28;20202;-73
2023/07/04 00:24:13;;;;;;;4.25;3.15;;;;;;;18.74;93.18;94592.50;5111130;28;20208;-73
2023/07/04 00:26:40;;;;;;;5.82;3.55;;;;;;;18.73;93.05;94590.94;5099144;28;20656;-73
2023/07/04 00:29:07;;;;;;;4.45;3.30;;;;;;;18.70;92.68;94591.72;5092521;28;20246;-73
2023/07/04 00:31:33;;;;;;;4.20;3.50;;;;;;;18.65;93.33;94594.78;5101951;28;20301;-73
2023/07/04 00:34:00;;;;;;;8.18;3.90;;;;;;;18.61;93.82;94589.28;5105274;28;20591;-73
2023/07/04 00:36:29;;;;;;;5.47;3.78;;;;;;;18.58;94.28;94598.28;5088559;28;20264;-73
2023/07/04 00:38:57;;;;;;;5.25;3.72;;;;;;;18.59;94.26;94597.09;5076932;28;20207;-73
2023/07/04 00:41:25;;;;;;;4.13;2.95;;;;;;;18.60;93.78;94593.19;5101609;28;20212;-73
2023/07/04 00:44:00;;;;;;;6.50;3.30;;;;;;;18.55;93.82;94584.50;5092279;28;20245;-73
2023/07/04 00:46:38;;;;;;;4.70;3.28;;;;;;;18.56;94.19;94586.06;5086673;28;20206;-73
2023/07/04 00:49:18;;;;;;;4.78;3.53;;;;;;;18.57;94.94;94588.44;5106450;28;20200;-73
2023/07/04 00:51:50;;;;;;;4.72;3.70;;;;;;;18.58;95.37;94589.22;5093290;28;20283;-73
2023/07/04 00:54:19;;;;;;;5.35;3.60;;;;;;;18.54;95.57;94582.91;5085498;28;20238;-74
2023/07/04 00:56:46;;;;;;;9.85;3.70;;;;;;;18.51;95.99;94586.41;5105225;28;20201;-74
2023/07/04 00:59:13;;;;;;;5.40;3.45;;;;;;;18.50;96.42;94584.84;5096460;28;20202;-74
2023/07/04 01:01:42;;;;;;;5.47;3.63;;;;;;;18.47;96.59;94581.69;5095366;28;20604;-74
2023/07/04 01:04:09;;;;;;;6.20;4.05;;;;;;;18.45;96.60;94586.75;5096688;28;20209;-74
2023/07/04 01:06:43;;;;;;;8.15;3.88;;;;;;;18.44;96.41;94589.91;5109249;28;20197;-74
2023/07/04 01:09:13;;;;;;;4.18;3.60;;;;;;;18.41;96.56;94587.91;5097846;28;20221;-74
2023/07/04 01:11:42;;;;;;;6.90;3.78;;;;;;;18.41;96.81;94585.94;5099846;28;20288;-74
2023/07/04 01:14:25;;;;;;;5.15;3.70;;;;;;;18.37;96.71;94584.34;5100938;28;20225;-74
2023/07/04 01:16:53;;;;;;;6.40;4.25;;;;;;;18.39;96.57;94593.75;5098479;28;20191;-73
2023/07/04 01:19:27;;;;;;;5.50;3.70;;;;;;;18.41;96.39;94598.88;5101734;28;20198;-74
2023/07/04 01:22:05;;;;;;;5.57;3.65;;;;;;;18.39;96.34;94599.25;5095107;28;20941;-73
2023/07/04 01:24:42;;;;;;;5.72;3.55;;;;;;;18.33;96.12;94598.00;5088691;28;20270;-74
2023/07/04 01:27:11;;;;;;;6.63;4.20;;;;;;;18.32;97.64;94593.69;5083385;28;20198;-73
2023/07/04 01:29:40;;;;;;;4.45;3.63;;;;;;;18.33;98.25;94595.25;5098717;28;20258;-73
2023/07/04 01:32:08;;;;;;;8.10;4.25;;;;;;;18.20;99.55;94590.44;5104230;28;20193;-73
2023/07/04 01:34:35;;;;;;;5.97;4.13;;;;;;;18.22;99.98;94583.41;5090124;28;20241;-73
2023/07/04 01:37:02;;;;;;;6.55;4.60;;;;;;;18.23;100.00;94590.47;5093578;28;20301;-73
2023/07/04 01:39:29;;;;;;;6.63;4.60;;;;;;;18.20;99.97;94585.72;5101115;28;20616;-73
2023/07/04 01:41:56;;;;;;;6.88;4.18;;;;;;;18.11;100.00;94577.81;5089378;28;20207;-73
2023/07/04 01:44:24;;;;;;;7.35;4.68;;;;;;;18.13;100.00;94584.88;5080637;28;20234;-73
2023/07/04 01:46:52;;;;;;;5.85;3.97;;;;;;;18.07;100.00;94577.00;5088133;28;20202;-73
2023/07/04 01:49:19;;;;;;;6.60;4.10;;;;;;;18.10;100.00;94575.47;5106067;28;20216;-73
2023/07/04 01:51:47;;;;;;;6.25;4.10;;;;;;;18.13;100.00;94588.41;5094729;28;20626;-73
2023/07/04 01:54:17;;;;;;;10.20;4.80;;;;;;;17.98;100.00;94583.94;5091559;28;20254;-73
2023/07/04 01:56:47;;;;;;;8.35;4.43;;;;;;;17.96;100.00;94586.28;5104132;28;20205;-73
2023/07/04 01:59:15;;;;;;;8.18;4.35;;;;;;;17.96;100.00;94589.00;5109252;28;20205;-73
2023/07/04 02:01:43;;;;;;;6.30;5.00;;;;;;;17.90;100.00;94585.06;5094729;28;20616;-74
2023/07/04 02:04:10;;;;;;;9.73;5.22;;;;;;;17.82;100.00;94591.59;5092270;28;20199;-73
2023/07/04 02:06:36;;;;;;;7.90;4.68;;;;;;;17.81;100.00;94592.75;5107902;28;20250;-73
2023/07/04 02:09:04;;;;;;;9.52;4.38;;;;;;;17.63;100.00;94589.78;5096291;28;20564;-73
2023/07/04 02:11:30;;;;;;;5.60;3.92;;;;;;;17.65;100.00;94603.91;5101762;28;20206;-73
2023/07/04 02:13:59;;;;;;;5.25;3.78;;;;;;;17.66;99.95;94600.81;5103824;28;20279;-73
2023/07/04 02:16:26;;;;;;;5.07;3.58;;;;;;;17.68;99.50;94595.75;5100812;28;20602;-73
2023/07/04 02:18:54;;;;;;;6.82;3.80;;;;;;;17.70;98.95;94596.16;5088559;28;20305;-73
2023/07/04 02:21:21;;;;;;;5.40;3.58;;;;;;;17.65;98.86;94599.22;5098899;28;20201;-73
2023/07/04 02:23:48;;;;;;;5.13;3.60;;;;;;;17.53;99.90;94596.69;5101991;28;20689;-73
2023/07/04 02:26:14;;;;;;;7.05;3.72;;;;;;;17.37;100.00;94594.16;5100459;28;20293;-73
2023/07/04 02:28:41;;;;;;;8.48;4.13;;;;;;;17.12;100.00;94594.97;5096348;28;20617;-73
2023/07/04 02:31:08;;;;;;;8.75;4.38;;;;;;;17.15;100.00;94602.44;5103224;28;20290;-74
2023/07/04 02:33:35;;;;;;;7.60;3.75;;;;;;;17.25;100.00;94590.84;5093983;28;20765;-73
2023/07/04 02:36:04;;;;;;;6.50;3.88;;;;;;;17.32;100.00;94586.28;5081751;28;20223;-72
2023/07/04 02:38:30;;;;;;;6.55;3.40;;;;;;;17.41;100.00;94595.00;5097625;28;20212;-73
2023/07/04 02:40:57;;;;;;;7.30;3.83;;;;;;;17.45;100.00;94589.56;5095932;28;20654;-72
2023/07/04 02:43:24;;;;;;;6.18;3.90;;;;;;;17.45;100.00;94592.31;5084468;28;20229;-74
2023/07/04 02:45:51;;;;;;;9.05;4.22;;;;;;;17.50;100.00;94586.47;5088590;28;20195;-72
2023/07/04 02:48:19;;;;;;;6.72;4.32;;;;;;;17.57;99.83;94586.59;5102920;28;20228;-73
2023/07/04 02:50:45;;;;;;;5.53;3.75;;;;;;;17.53;99.63;94585.75;5087513;28;20206;-73
2023/07/04 02:53:15;;;;;;;7.05;4.05;;;;;;;17.55;99.77;94588.91;5092383;28;20222;-73
2023/07/04 02:55:42;;;;;;;5.15;3.83;;;;;;;17.52;99.79;94589.66;5093580;28;20201;-73
2023/07/04 02:58:09;;;;;;;4.70;3.55;;;;;;;17.56;99.67;94590.50;5107760;28;20218;-73
2023/07/04 03:00:36;;;;;;;5.32;3.92;;;;;;;17.49;99.84;94595.09;5086573;28;20605;-73
2023/07/04 03:03:02;;;;;;;7.22;4.43;;;;;;;17.56;99.79;94595.97;5093111;28;20250;-73
2023/07/04 03:05:29;;;;;;;6.20;4.13;;;;;;;17.65;99.91;94592.97;5100390;28;20208;-73
2023/07/04 03:07:56;;;;;;;6.60;4.50;;;;;;;17.92;99.98;94586.22;5102227;28;20560;-73
2023/07/04 03:10:24;;;;;;;7.50;4.85;;;;;;;18.33;98.85;94589.78;5089419;28;20218;-73
2023/07/04 03:12:51;;;;;;;5.30;4.28;;;;;;;18.84;96.33;94580.06;5095275;28;20205;-73
2023/07/04 03:15:18;;;;;;;6.57;4.07;;;;;;;19.37;93.90;94575.69;5105486;28;20233;-73
2023/07/04 03:17:45;;;;;;;6.32;4.50;;;;;;;19.90;90.64;94579.84;5091470;28;20202;-73
2023/07/04 03:20:13;;;;;;;5.55;3.58;;;;;;;20.49;85.58;94584.75;5093676;28;20240;-73
2023/07/04 03:22:41;;;;;;;4.43;3.65;;;;;;;21.10;82.37;94580.00;5089932;28;20241;-73
2023/07/04 03:25:08;;;;;;;6.28;4.95;;;;;;;21.54;81.20;94576.00;5099500;28;20201;-73
2023/07/04 03:27:40;;;;;;;6.45;5.53;;;;;;;22.27;78.93;94568.59;5100932;28;20721;-73
2023/07/04 03:30:10;;;;;;;6.43;4.20;;;;;;;22.70;75.96;94574.56;5097227;28;20623;-73
2023/07/04 03:32:36;;;;;;;6.07;4.57;;;;;;;23.44;73.35;94568.81;5091083;28;20231;-73
2023/07/04 03:35:04;;;;;;;4.80;3.78;;;;;;;24.06;68.88;94569.28;5097401;28;20222;-73
2023/07/04 03:37:31;;;;;;;10.00;5.03;;;;;;;24.58;67.67;94571.75;5101536;28;20249;-73
2023/07/04 03:39:59;;;;;;;6.07;4.70;;;;;;;25.01;65.67;94565.56;5103541;28;20662;-74
2023/07/04 03:42:26;;;;;;;9.50;4.80;;;;;;;25.04;64.51;94570.25;5103315;28;20202;-73
2023/07/04 03:44:54;;;;;;;6.20;4.10;;;;;;;26.10;62.58;94570.28;5066942;28;20200;-74
2023/07/04 03:47:21;;;;;;;5.00;3.90;;;;;;;26.49;60.80;94566.66;5078626;28;20207;-73
2023/07/04 03:49:51;;;;;;;6.43;4.38;;;;;;;26.57;60.66;94573.63;5084084;28;20199;-73
2023/07/04 03:52:17;;;;;;;9.30;4.50;;;;;;;27.35;57.33;94571.72;5072398;28;20195;-74
2023/07/04 03:54:44;;;;;;;7.47;4.95;;;;;;;27.88;56.17;94570.31;5078055;28;20237;-73
2023/07/04 03:57:11;;;;;;;5.07;4.55;;;;;;;27.56;56.05;94582.34;5086508;28;20542;-73
2023/07/04 03:59:38;;;;;;;7.03;4.57;;;;;;;28.06;55.41;94572.63;5078844;28;20202;-74
2023/07/04 04:02:06;;;;;;;6.00;5.05;;;;;;;28.64;53.22;94580.88;5081294;28;20199;-74
2023/07/04 04:04:39;;;;;;;8.73;5.20;;;;;;;29.05;52.11;94584.81;5082591;28;20207;-73
2023/07/04 04:07:07;;;;;;;9.02;4.88;;;;;;;29.74;50.32;94582.09;5091020;28;20191;-74
2023/07/04 04:09:34;;;;;;;5.93;4.97;;;;;;;29.93;49.73;94578.22;5072478;28;20227;-74
2023/07/04 04:12:00;;;;;;;5.47;4.88;;;;;;;30.13;49.11;94569.53;5080404;28;20237;-75
2023/07/04 04:14:28;;;;;;;6.30;5.25;;;;;;;30.69;47.84;94575.03;5088842;28;20630;-74
2023/07/04 04:16:55;;;;;;;8.00;5.30;;;;;;;30.77;46.85;94579.09;5066359;28;20208;-73
2023/07/04 04:19:23;;;;;;;5.90;4.82;;;;;;;30.94;47.03;94574.81;5077425;28;20720;-73
2023/07/04 04:21:50;;;;;;;9.15;5.13;;;;;;;31.32;45.70;94593.28;5079166;28;20266;-73
2023/07/04 04:24:17;;;;;;;7.32;5.07;;;;;;;31.01;46.36;94582.94;5091627;28;20205;-73
2023/07/04 04:26:46;;;;;;;7.25;5.18;;;;;;;30.79;46.45;94587.81;5074074;28;20203;-73
2023/07/04 04:29:15;;;;;;;6.40;5.20;;;;;;;30.75;46.70;94592.78;5070559;28;20199;-73
2023/07/04 04:31:42;;;;;;;9.23;4.60;;;;;;;29.36;49.24;94596.94;5071972;28;20218;-73
2023/07/04 04:34:09;;;;;;;5.22;4.40;;;;;;;28.87;50.38;94610.47;5080642;28;20292;-73
2023/07/04 04:36:38;;;;;;;6.07;4.60;;;;;;;28.28;51.78;94609.81;5070899;28;20293;-74
2023/07/04 04:39:05;;;;;;;9.30;5.00;;;;;;;29.43;50.36;94601.50;5071118;28;20202;-74
2023/07/04 04:41:33;;;;;;;7.38;4.78;;;;;;;29.64;49.13;94611.97;5070808;28;20272;-74
2023/07/04 04:44:02;;;;;;;6.20;4.93;;;;;;;30.75;46.68;94609.56;5083521;28;20230;-73
2023/07/04 04:46:29;;;;;;;7.60;5.18;;;;;;;30.89;46.31;94606.19;5090826;28;20217;-74
2023/07/04 04:48:58;;;;;;;7.68;5.03;;;;;;;31.74;44.51;94611.13;5090950;28;20194;-73
2023/07/04 04:51:25;;;;;;;7.80;5.70;;;;;;;32.58;42.67;94615.50;5090440;28;20232;-75
2023/07/04 04:53:53;;;;;;;8.30;5.30;;;;;;;32.86;41.54;94608.59;5090419;28;20190;-75
2023/07/04 04:56:20;;;;;;;6.00;5.00;;;;;;;33.75;39.98;94602.25;5090676;28;20226;-74
2023/07/04 04:58:47;;;;;;;7.38;5.50;;;;;;;33.66;40.19;94607.91;5090932;28;20268;-74
2023/07/04 05:01:15;;;;;;;8.23;5.13;;;;;;;34.53;38.37;94608.66;5090955;28;20206;-73
2023/07/04 05:03:42;;;;;;;8.60;5.65;;;;;;;34.16;39.19;94611.00;5096959;28;20201;-76
2023/07/04 05:06:09;;;;;;;8.95;5.47;;;;;;;35.09;37.54;94607.59;5087539;28;20496;-73
2023/07/04 05:08:36;;;;;;;10.88;5.75;;;;;;;34.32;38.65;94616.19;5090827;28;20202;-75
2023/07/04 05:11:07;;;;;;;8.43;6.25;;;;;;;34.12;39.03;94613.22;5090359;28;20247;-76
2023/07/04 05:13:34;;;;;;;11.43;5.97;;;;;;;32.85;40.50;94623.88;5090563;28;20217;-74
2023/07/04 05:16:01;;;;;;;8.65;6.15;;;;;;;32.61;41.37;94620.16;5090053;28;20225;-74
2023/07/04 05:18:29;;;;;;;8.10;6.30;;;;;;;31.92;42.62;94621.59;5090869;28;20199;-73
2023/07/04 05:21:03;;;;;;;10.18;6.22;;;;;;;32.48;42.70;94618.31;5096069;28;20205;-75
2023/07/04 05:23:30;;;;;;;8.80;6.00;;;;;;;32.88;41.52;94616.53;5103069;28;20210;-75
2023/07/04 05:26:06;;;;;;;12.77;5.97;;;;;;;32.67;41.94;94607.81;5089704;28;20199;-75
2023/07/04 05:28:33;;;;;;;7.65;5.88;;;;;;;32.80;41.27;94610.50;5085219;28;20198;-74
2023/07/04 05:31:01;;;;;;;7.15;5.43;;;;;;;33.72;39.71;94606.00;5089892;28;20526;-75
2023/07/04 05:33:28;;;;;;;8.65;6.22;;;;;;;33.16;40.39;94604.72;5091935;28;20244;-75
2023/07/04 05:36:03;;;;;;;9.57;6.50;;;;;;;33.75;39.53;94596.63;5074404;28;20237;-74
2023/07/04 05:38:30;;;;;;;6.90;5.80;;;;;;;33.79;39.42;94602.06;5089577;28;20198;-75
2023/07/04 05:40:57;;;;;;;7.05;5.60;;;;;;;33.35;40.45;94605.41;5086423;28;20199;-74
2023/07/04 05:43:25;;;;;;;10.18;5.43;;;;;;;34.24;39.22;94607.34;5088567;28;20291;-75
2023/07/04 05:45:53;;;;;;;6.75;5.35;;;;;;;35.06;37.81;94602.16;5085854;28;20199;-75
2023/07/04 05:48:20;;;;;;;10.07;6.32;;;;;;;33.26;40.10;94615.94;5087047;28;20715;-75
2023/07/04 05:50:54;;;;;;;12.40;6.20;;;;;;;33.99;38.97;94601.47;5086255;28;20255;-75
2023/07/04 05:53:24;;;;;;;7.88;5.30;;;;;;;33.54;39.81;94606.09;5088945;28;20202;-75
2023/07/04 05:55:51;;;;;;;8.02;6.15;;;;;;;34.21;39.19;94601.88;5089889;28;20230;-75
2023/07/04 05:58:18;;;;;;;9.68;6.15;;;;;;;33.11;40.48;94601.78;5089668;28;20357;-76
2023/07/04 06:00:48;;;;;;;7.80;5.15;;;;;;;34.92;38.20;94603.72;5089855;28;20202;-75
2023/07/04 06:03:17;;;;;;;7.43;4.72;;;;;;;35.03;37.08;94598.28;5096777;28;20258;-75
2023/07/04 06:05:45;;;;;;;6.18;5.00;;;;;;;36.15;35.82;94599.88;5097306;28;20515;-75
2023/07/04 06:08:12;;;;;;;9.98;5.05;;;;;;;35.12;36.60;94595.38;5102423;28;20218;-74
2023/07/04 06:10:38;;;;;;;6.70;4.82;;;;;;;35.33;36.23;94592.59;5084791;28;20717;-75
2023/07/04 06:13:05;;;;;;;8.40;4.78;;;;;;;34.23;38.72;94593.75;5086317;28;20722;-76
2023/07/04 06:15:32;;;;;;;5.15;4.65;;;;;;;33.36;39.76;94603.41;5087599;28;20777;-75
2023/07/04 06:18:00;;;;;;;5.35;4.63;;;;;;;33.63;39.40;94592.00;5089169;28;20206;-74
2023/07/04 06:20:27;;;;;;;8.82;4.70;;;;;;;33.77;39.28;94601.75;5087524;28;20206;-75
2023/07/04 06:22:55;;;;;;;4.88;3.88;;;;;;;33.68;38.91;94594.16;5089021;28;20194;-76
2023/07/04 06:25:21;;;;;;;8.80;5.05;;;;;;;33.43;40.41;94595.41;5089847;28;20217;-75
2023/07/04 06:27:48;;;;;;;6.80;4.45;;;;;;;34.46;37.87;94598.53;5087991;28;20774;-75
2023/07/04 06:30:15;;;;;;;5.47;3.90;;;;;;;34.89;37.27;94590.63;5089163;28;20191;-73
2023/07/04 06:32:42;;;;;;;7.32;4.18;;;;;;;35.10;37.34;94597.88;5098908;28;20624;-74
2023/07/04 06:35:10;;;;;;;5.95;4.40;;;;;;;34.70;36.93;94592.84;5090638;28;20225;-74
2023/07/04 06:37:37;;;;;;;5.97;4.63;;;;;;;36.30;34.54;94597.75;5088804;28;20211;-76
2023/07/04 06:40:05;;;;;;;6.20;4.10;;;;;;;36.50;34.76;94594.88;5082295;28;20200;-77
2023/07/04 06:42:33;;;;;;;6.55;4.32;;;;;;;37.12;33.63;94599.06;5084667;28;20198;-78
2023/07/04 06:44:59;;;;;;;6.95;4.70;;;;;;;37.42;33.67;94590.31;5086237;28;20195;-77
2023/07/04 06:47:26;;;;;;;10.00;4.95;;;;;;;37.08;34.85;94595.69;5087763;28;20649;-76
2023/07/04 06:49:54;;;;;;;6.68;4.68;;;;;;;34.97;36.74;94603.06;5086955;28;20560;-76
2023/07/04 06:52:22;;;;;;;7.53;4.68;;;;;;;34.42;37.40;94606.44;5077308;28;20676;-76
2023/07/04 06:54:50;;;;;;;7.80;4.90;;;;;;;35.75;35.69;94595.78;5075082;28;20242;-76
2023/07/04 06:57:17;;;;;;;6.25;4.55;;;;;;;36.74;35.02;94605.16;5073096;28;20238;-75
2023/07/04 06:59:45;;;;;;;10.88;4.85;;;;;;;36.24;35.07;94596.91;5081464;28;20725;-74
2023/07/04 07:02:14;;;;;;;6.80;4.47;;;;;;;35.87;37.39;94597.47;5092510;28;20205;-76
2023/07/04 07:04:41;;;;;;;6.95;5.38;;;;;;;34.79;37.71;94600.44;5090607;28;20280;-75
2023/07/04 07:07:09;;;;;;;7.57;4.95;;;;;;;33.69;39.81;94597.75;5092645;28;20202;-73
2023/07/04 07:09:40;;;;;;;7.03;4.78;;;;;;;32.97;40.39;94597.63;5089776;28;20637;-77
2023/07/04 07:12:08;;;;;;;7.25;5.22;;;;;;;35.12;38.59;94595.38;5089742;28;20187;-74
2023/07/04 07:14:35;;;;;;;6.05;4.68;;;;;;;34.48;38.01;94596.03;5090804;28;20198;-74
2023/07/04 07:17:02;;;;;;;9.32;4.82;;;;;;;35.30;37.16;94587.94;5091531;28;20255;-74
2023/07/04 07:19:29;;;;;;;9.98;5.40;;;;;;;35.03;37.66;94592.63;5093645;28;20202;-73
2023/07/04 07:21:56;;;;;;;7.03;5.10;;;;;;;32.69;41.75;94601.75;5091510;28;20197;-73
2023/07/04 07:24:23;;;;;;;8.00;5.10;;;;;;;33.97;39.26;94593.50;5081360;28;20207;-74
2023/07/04 07:26:51;;;;;;;7.85;4.90;;;;;;;35.03;38.30;94587.00;5090006;28;20203;-78
2023/07/04 07:29:18;;;;;;;6.68;5.20;;;;;;;35.02;37.36;94588.25;5091195;28;20255;-76
2023/07/04 07:31:45;;;;;;;7.50;5.80;;;;;;;34.36;39.76;94588.66;5089785;28;20194;-76
2023/07/04 07:34:12;;;;;;;6.75;4.80;;;;;;;33.25;40.53;94603.16;5092179;28;20190;-74
2023/07/04 07:36:41;;;;;;;7.60;5.53;;;;;;;32.01;42.50;94606.78;5090312;28;20647;-73
2023/07/04 07:39:10;;;;;;;9.88;5.85;;;;;;;31.98;42.54;94610.56;5089182;28;20650;-75
2023/07/04 07:41:39;;;;;;;10.70;5.38;;;;;;;31.77;43.16;94604.59;5094265;28;20575;-74
2023/07/04 07:44:08;;;;;;;8.57;6.00;;;;;;;30.96;44.34;94602.34;5088794;28;20279;-74
2023/07/04 07:46:35;;;;;;;7.57;5.43;;;;;;;32.83;42.39;94592.69;5092601;28;20209;-77
2023/07/04 07:49:03;;;;;;;8.20;5.53;;;;;;;34.05;39.26;94602.31;5089999;28;20248;-77
2023/07/04 07:51:30;;;;;;;13.80;6.93;;;;;;;34.51;39.37;94597.88;5089956;28;20221;-75
2023/07/04 07:53:59;;;;;;;7.72;6.05;;;;;;;33.36;40.80;94606.19;5088345;28;20198;-74
2023/07/04 07:56:27;;;;;;;7.95;6.10;;;;;;;32.38;41.51;94613.97;5088596;28;20230;-75
2023/07/04 07:58:53;;;;;;;8.73;5.63;;;;;;;32.74;41.29;94603.94;5089812;28;20198;-74
2023/07/04 08:01:24;;;;;;;8.73;5.70;;;;;;;33.43;39.82;94603.06;5088215;28;20203;-75
2023/07/04 08:03:51;;;;;;;7.65;5.72;;;;;;;33.29;40.19;94612.97;5088631;28;20653;-74
2023/07/04 08:06:23;;;;;;;7.40;5.50;;;;;;;32.71;40.72;94608.44;5091750;28;20702;-74
2023/07/04 08:08:50;;;;;;;10.15;5.50;;;;;;;32.91;42.22;94607.94;5087819;28;20644;-74
2023/07/04 08:11:17;;;;;;;7.72;5.43;;;;;;;33.47;40.51;94601.63;5086842;28;20194;-74
2023/07/04 08:13:44;;;;;;;10.63;5.70;;;;;;;31.56;43.44;94611.09;5088672;28;20198;-74
2023/07/04 08:16:11;;;;;;;7.60;6.05;;;;;;;31.56;43.64;94605.50;5085222;28;20259;-73
2023/07/04 08:18:40;;;;;;;8.43;6.22;;;;;;;30.64;44.83;94603.56;5091779;28;20198;-76
2023/07/04 08:21:08;;;;;;;7.53;5.75;;;;;;;30.42;45.96;94600.00;5086923;28;20285;-76
2023/07/04 08:23:34;;;;;;;10.27;6.85;;;;;;;30.37;46.36;94602.16;5088557;28;20727;-75
2023/07/04 08:26:01;;;;;;;10.60;6.38;;;;;;;30.50;45.71;94604.09;5097993;28;20227;-74
2023/07/04 08:28:28;;;;;;;9.63;6.72;;;;;;;31.61;45.28;94601.28;5092909;28;20186;-76
2023/07/04 08:31:03;;;;;;;9.05;5.75;;;;;;;32.07;43.40;94599.31;5090698;28;20190;-76
2023/07/04 08:33:29;;;;;;;8.30;5.97;;;;;;;32.41;43.44;94587.78;5087621;28;20189;-75
2023/07/04 08:36:00;;;;;;;10.18;5.53;;;;;;;32.69;43.43;94582.09;5090114;28;20226;-75
2023/07/04 08:38:27;;;;;;;8.60;5.82;;;;;;;32.36;42.89;94598.88;5091263;28;20346;-75
2023/07/04 08:40:55;;;;;;;10.27;6.90;;;;;;;31.82;44.54;94591.22;5090393;28;20210;-74
2023/07/04 08:43:29;;;;;;;10.60;6.13;;;;;;;32.19;42.29;94590.00;5094530;28;20307;-74
2023/07/04 08:45:57;;;;;;;10.00;6.75;;;;;;;32.07;42.10;94588.13;5083097;28;20739;-73
2023/07/04 08:48:26;;;;;;;8.90;7.10;;;;;;;31.86;43.19;94587.00;5090014;28;20218;-73
2023/07/04 08:50:57;;;;;;;12.45;6.38;;;;;;;31.48;44.45;94587.41;5090694;28;20229;-72
2023/07/04 08:53:26;;;;;;;6.70;5.28;;;;;;;31.95;44.20;94587.03;5097840;28;20222;-73
2023/07/04 08:56:00;;;;;;;8.50;6.10;;;;;;;32.29;43.36;94583.13;5070321;28;20314;-73
2023/07/04 08:58:36;;;;;;;8.80;5.68;;;;;;;31.94;44.53;94593.09;5079046;28;20291;-73
2023/07/04 09:01:11;;;;;;;10.13;6.22;;;;;;;31.53;43.85;94578.41;5074394;28;20244;-73
2023/07/04 09:03:46;;;;;;;10.38;6.00;;;;;;;32.04;44.02;94572.22;5070223;28;20210;-73
2023/07/04 09:06:21;;;;;;;6.95;5.90;;;;;;;31.47;43.78;94580.25;5070431;28;20217;-75
2023/07/04 09:09:02;;;;;;;10.57;6.57;;;;;;;31.14;46.87;94580.03;5070434;28;20218;-73
2023/07/04 09:11:30;;;;;;;9.90;6.00;;;;;;;30.58;45.83;94571.88;5078049;28;20237;-73
2023/07/04 09:14:02;;;;;;;9.13;7.10;;;;;;;30.00;46.82;94578.00;5102726;28;20254;-72
2023/07/04 09:16:35;;;;;;;10.02;6.60;;;;;;;30.32;46.82;94571.22;5079206;28;20287;-73
2023/07/04 09:19:05;;;;;;;10.43;6.38;;;;;;;31.34;45.86;94560.00;5089994;28;20206;-73
2023/07/04 09:21:33;;;;;;;9.43;6.85;;;;;;;30.80;45.74;94575.38;5090084;28;20212;-74
2023/07/04 09:24:02;;;;;;;9.32;6.32;;;;;;;30.29;47.94;94570.13;5090385;28;20291;-73
2023/07/04 09:26:37;;;;;;;11.55;6.50;;;;;;;30.36;47.02;94567.03;5090432;28;20206;-74
2023/07/04 09:29:06;;;;;;;8.65;7.22;;;;;;;30.38;46.39;94570.16;5090254;28;20202;-73
2023/07/04 09:31:37;;;;;;;15.18;7.05;;;;;;;30.13;47.05;94564.72;5089899;28;20199;-70
2023/07/04 09:34:10;;;;;;;9.73;6.75;;;;;;;30.05;47.75;94569.03;5090305;28;20202;-73
2023/07/04 09:36:39;;;;;;;13.73;7.15;;;;;;;30.16;46.77;94561.03;5102745;28;20274;-73
2023/07/04 09:39:09;;;;;;;10.10;6.75;;;;;;;30.86;47.15;94558.78;5070034;28;20271;-74
2023/07/04 09:41:39;;;;;;;10.38;6.50;;;;;;;30.77;46.48;94567.88;5071802;28;20210;-73
2023/07/04 09:44:19;;;;;;;10.05;6.28;;;;;;;30.72;45.88;94555.31;5089620;28;20251;-70
2023/07/04 09:46:50;;;;;;;10.30;6.43;;;;;;;30.68;47.48;94543.47;5081832;28;20700;-74
2023/07/04 09:49:23;;;;;;;9.60;6.43;;;;;;;30.21;48.55;94552.03;5084446;28;20761;-73
2023/07/04 09:52:02;;;;;;;9.75;6.82;;;;;;;29.83;49.32;94554.22;5077392;28;20195;-73
2023/07/04 09:54:31;;;;;;;7.70;6.60;;;;;;;29.04;50.63;94558.13;5077454;28;20213;-76
2023/07/04 09:57:16;;;;;;;8.60;6.15;;;;;;;30.12;48.17;94554.78;5088302;28;20302;-73
2023/07/04 09:59:43;;;;;;;8.90;6.70;;;;;;;30.68;46.81;94543.47;5088688;28;20202;-75
2023/07/04 10:02:14;;;;;;;8.77;5.95;;;;;;;30.98;45.66;94544.66;5086317;28;20199;-75
2023/07/04 10:04:41;;;;;;;10.52;6.82;;;;;;;31.62;45.68;94541.22;5089858;28;20236;-75
2023/07/04 10:07:13;;;;;;;9.23;6.72;;;;;;;32.01;46.08;94545.91;5089020;28;20707;-75
2023/07/04 10:09:48;;;;;;;8.05;6.22;;;;;;;32.10;45.77;94551.53;5090082;28;20206;-73
2023/07/04 10:12:17;;;;;;;11.32;6.70;;;;;;;32.20;42.52;94531.91;5089318;28;20197;-73
2023/07/04 10:14:49;;;;;;;7.13;5.57;;;;;;;32.07;43.84;94540.47;5086190;28;20191;-72
2023/07/04 10:17:18;;;;;;;7.35;5.80;;;;;;;31.07;45.72;94539.09;5074728;28;20226;-74
2023/07/04 10:19:47;;;;;;;8.25;6.55;;;;;;;30.75;46.77;94537.56;5076192;28;20202;-73
2023/07/04 10:22:22;;;;;;;9.00;6.40;;;;;;;30.83;47.06;94537.31;5078670;28;20239;-75
2023/07/04 10:24:51;;;;;;;7.70;5.82;;;;;;;31.36;45.44;94533.09;5074163;28;20588;-73
2023/07/04 10:27:20;;;;;;;7.13;6.30;;;;;;;31.87;45.42;94526.16;5079177;28;20196;-74
2023/07/04 10:29:54;;;;;;;7.28;6.10;;;;;;;32.45;43.00;94518.28;5086052;28;20564;-74
2023/07/04 10:32:22;;;;;;;9.30;6.25;;;;;;;32.34;43.22;94520.81;5089475;28;20201;-73
2023/07/04 10:34:50;;;;;;;10.10;6.32;;;;;;;32.62;44.43;94515.09;5088737;28;20198;-74
2023/07/04 10:37:23;;;;;;;7.38;6.25;;;;;;;32.58;43.60;94515.28;5088994;28;20230;-74
2023/07/04 10:39:58;;;;;;;8.15;6.18;;;;;;;32.91;41.28;94509.72;5089176;28;20285;-74
2023/07/04 10:42:32;;;;;;;10.68;6.90;;;;;;;31.98;42.95;94515.25;5099221;28;20197;-73
2023/07/04 10:45:00;;;;;;;6.18;5.57;;;;;;;31.84;44.16;94519.47;5071615;28;20328;-74
2023/07/04 10:47:31;;;;;;;9.05;5.68;;;;;;;31.93;44.29;94522.25;5079600;28;20553;-74
2023/07/04 10:50:02;;;;;;;7.30;6.13;;;;;;;32.39;42.01;94508.94;5089122;28;20210;-74
2023/07/04 10:52:32;;;;;;;6.22;5.63;;;;;;;32.00;42.20;94504.31;5089227;28;20206;-74
2023/07/04 10:55:02;;;;;;;7.40;5.82;;;;;;;32.41;45.37;94506.44;5089159;28;20558;-74
2023/07/04 10:57:35;;;;;;;10.20;6.43;;;;;;;31.48;43.91;94511.81;5088818;28;20703;-74
2023/07/04 11:00:08;;;;;;;7.38;6.30;;;;;;;30.58;44.06;94507.53;5081043;28;20203;-73
2023/07/04 11:02:41;;;;;;;8.00;5.70;;;;;;;30.77;46.70;94511.94;5073820;28;20306;-73
2023/07/04 11:05:14;;;;;;;6.70;5.65;;;;;;;30.88;44.80;94505.94;5085728;28;20208;-73
2023/07/04 11:07:44;;;;;;;7.93;6.13;;;;;;;30.63;44.04;94504.91;5076520;28;20533;-73
2023/07/04 11:10:15;;;;;;;7.70;6.28;;;;;;;31.12;43.07;94492.19;5080131;28;20240;-73
2023/07/04 11:12:42;;;;;;;9.40;6.20;;;;;;;30.32;45.31;94493.72;5083722;28;20207;-71
2023/07/04 11:15:22;;;;;;;8.00;6.20;;;;;;;30.50;45.54;94492.22;5088296;28;20610;-73
2023/07/04 11:17:50;;;;;;;6.97;5.72;;;;;;;30.76;43.02;94490.81;5075825;28;20692;-73
2023/07/04 11:20:22;;;;;;;7.97;5.93;;;;;;;30.72;45.04;94487.38;5082596;28;20259;-74
2023/07/04 11:22:57;;;;;;;6.65;5.47;;;;;;;31.00;43.25;94480.63;5088230;28;20665;-73
2023/07/04 11:25:32;;;;;;;7.50;5.72;;;;;;;30.11;44.69;94491.75;5085060;28;20284;-78
2023/07/04 11:28:18;;;;;;;9.25;6.35;;;;;;;30.26;44.60;94473.19;5080182;28;20653;-77
2023/07/04 11:30:48;;;;;;;8.23;6.15;;;;;;;30.85;43.46;94473.28;5078713;28;20603;-76
2023/07/04 11:33:41;;;;;;;9.93;6.40;;;;;;;31.09;42.76;94471.44;5087619;28;20283;-76
2023/07/04 11:36:15;;;;;;;7.40;6.20;;;;;;;31.03;42.33;94465.69;5079598;28;20195;-72
2023/07/04 11:38:45;;;;;;;9.50;6.03;;;;;;;31.77;42.12;94464.50;5094098;28;20710;-73
2023/07/04 11:41:14;;;;;;;6.60;5.88;;;;;;;31.94;40.54;94466.97;5095829;28;20205;-73